Aviation Digital Data Service (ADDS)

Output produced by METARs form (0508 UTC 18 February 2018)
found at http://aviationweather.gov/adds/metars/
 
KCLE 180309Z 1803/1906 21004KT P6SM OVC025 
     FM180400 23007KT 4SM -SN OVC025 
     FM180700 25009KT P6SM OVC015 
     FM181500 25005KT P6SM SCT250 
     FM181800 18008KT P6SM SCT250